»·PEaware :: SWA956 KRNO-KOAK

SWA956 :: KRNO-KOAK

FLIGHT INFORMATION

Flight Status: Arrived
Operator:
Southwest Airlines
More flights by this operator :: More flights under this callsign
Pilot: Herb P. (797)
Aircraft: BOEING 737-800
(B738)
More flights by this aircraft type
Origin: KRNO Reno/Tahoe Intl
United States
Destination: KOAK Metro Oakland Intl
United States
More flights between these airports :: More routes between these airports
Route: +ZEFFR6 MRLET OAKES2
File this flight plan on PilotEdge
Remarks:
Altitude:
(Current/Filed)
24,000ft
Speed:
(Current/Filed)
450kts
Departed: 23-Nov-20 08:40 AM
Arrived: 23-Nov-20 09:19 AM
Distance/Time
Traveled:
157nm/0:38
Distance/Time
To Go:
Arrived

Flight Plot

Page will automatically refresh every two minutes.

Flight plan parsing failed; only flown route is shown


Map Options




Map Legend


Flown Route
Filed Route
Departure Airport
Arrival Airport
Navaid (VOR, NDB)
Fix

Horizontal Profiles

Position Reports

Time Latitude Longitude Heading Altitude Ground
Speed
23-Nov-20 08:16 39.504382 -119.774260 16 4425ft 0kts
23-Nov-20 08:17 39.504382 -119.774260 16 4425ft 0kts
23-Nov-20 08:18 39.504382 -119.774260 16 4425ft 0kts
23-Nov-20 08:19 39.504382 -119.774260 16 4425ft 0kts
23-Nov-20 08:20 39.504382 -119.774260 16 4425ft 0kts
23-Nov-20 08:21 39.504382 -119.774260 16 4425ft 0kts
23-Nov-20 08:22 39.504382 -119.774260 16 4425ft 0kts
23-Nov-20 08:23 39.504382 -119.774260 16 4425ft 0kts
23-Nov-20 08:24 39.504382 -119.774260 16 4425ft 0kts
23-Nov-20 08:25 39.504382 -119.774260 16 4425ft 0kts
23-Nov-20 08:26 39.504382 -119.774260 16 4425ft 0kts
23-Nov-20 08:27 39.504382 -119.774260 16 4425ft 0kts
23-Nov-20 08:28 39.504382 -119.774260 16 4425ft 0kts
23-Nov-20 08:29 39.504050 -119.774413 11 4425ft 2kts
23-Nov-20 08:30 39.503459 -119.774474 359 4425ft 2kts
23-Nov-20 08:31 39.503382 -119.774475 0 4425ft 0kts
23-Nov-20 08:32 39.503382 -119.774475 0 4425ft 0kts
23-Nov-20 08:33 39.503382 -119.774475 0 4425ft 0kts
23-Nov-20 08:34 39.503398 -119.774475 0 4425ft 1kts
23-Nov-20 08:35 39.505211 -119.771520 359 4425ft 21kts
23-Nov-20 08:36 39.511032 -119.771499 359 4425ft 20kts
23-Nov-20 08:37 39.513723 -119.770618 86 4425ft 0kts
23-Nov-20 08:38 39.513723 -119.770618 86 4425ft 0kts
23-Nov-20 08:39 39.508461 -119.769267 179 4426ft 101kts
23-Nov-20 08:40 39.457333 -119.769767 186 5885ft 220kts
23-Nov-20 08:41 39.388657 -119.779984 186 7827ft 268kts
23-Nov-20 08:42 39.309809 -119.782288 182 9089ft 313kts
23-Nov-20 08:43 39.229426 -119.796195 194 13539ft 313kts
23-Nov-20 08:44 39.152912 -119.817941 195 16581ft 341kts
23-Nov-20 08:45 39.066078 -119.843289 196 18949ft 383kts
23-Nov-20 08:46 38.958971 -119.874759 196 21923ft 409kts
23-Nov-20 08:47 38.845782 -119.907928 196 24093ft 437kts
23-Nov-20 08:48 38.722656 -119.943893 196 24090ft 467kts
23-Nov-20 08:49 38.596517 -119.980523 196 24090ft 465kts
23-Nov-20 08:50 38.470206 -120.017114 196 24091ft 465kts
23-Nov-20 08:51 38.344038 -120.054622 201 24089ft 463kts
23-Nov-20 08:52 38.226597 -120.118341 211 24091ft 457kts
23-Nov-20 08:53 38.113941 -120.192157 213 24091ft 456kts
23-Nov-20 08:54 38.002192 -120.268240 213 24091ft 455kts
23-Nov-20 08:55 37.901958 -120.355140 242 24094ft 406kts
23-Nov-20 08:56 37.862308 -120.484536 263 24090ft 390kts
23-Nov-20 08:57 37.837302 -120.617581 265 24090ft 388kts
23-Nov-20 08:58 37.814112 -120.751222 265 22728ft 380kts
23-Nov-20 08:59 37.792447 -120.876889 264 20662ft 354kts
23-Nov-20 09:00 37.771400 -120.996525 263 18307ft 344kts
23-Nov-20 09:01 37.751277 -121.111632 262 16272ft 327kts
23-Nov-20 09:02 37.731731 -121.224416 261 14349ft 328kts
23-Nov-20 09:03 37.708843 -121.328921 255 13093ft 299kts
23-Nov-20 09:04 37.683388 -121.426864 255 11496ft 289kts
23-Nov-20 09:05 37.659008 -121.520852 255 10293ft 268kts
23-Nov-20 09:06 37.636313 -121.608225 255 9336ft 268kts
23-Nov-20 09:07 37.616878 -121.684907 261 8198ft 260kts
23-Nov-20 09:08 37.609823 -121.773473 268 6960ft 250kts
23-Nov-20 09:09 37.606969 -121.857989 274 5581ft 231kts
23-Nov-20 09:10 37.607522 -121.930048 274 4493ft 187kts
23-Nov-20 09:11 37.606321 -121.994124 272 3711ft 166kts
23-Nov-20 09:12 37.606619 -122.051728 274 2770ft 163kts
23-Nov-20 09:13 37.622675 -122.098464 317 2413ft 137kts
23-Nov-20 09:15 37.646906 -122.132789 312 1699ft 119kts
23-Nov-20 09:16 37.668284 -122.164636 312 1063ft 116kts
23-Nov-20 09:17 37.688859 -122.195854 310 385ft 112kts
23-Nov-20 09:18 37.706814 -122.222120 311 14ft 42kts
23-Nov-20 09:19 37.710838 -122.226275 352 14ft 0kts
23-Nov-20 09:20 37.711179 -122.224669 96 14ft 14kts
23-Nov-20 09:21 37.711189 -122.219251 132 14ft 17kts
23-Nov-20 09:22 37.710969 -122.217078 102 14ft 0kts

Navigation Log

Ident Type
Flight plan parsing failed, navigation log unavailable